createdAt,value
2022-08-19T00:00:00.610Z,71
2022-08-19T00:00:32.037Z,72
2022-08-19T00:01:04.045Z,71
2022-08-19T00:01:34.418Z,71
2022-08-19T00:01:53.530Z,71
2022-08-19T00:02:24.049Z,71
2022-08-19T00:02:50.560Z,71
2022-08-19T00:03:12.126Z,71
2022-08-19T00:03:34.417Z,71
2022-08-19T00:04:00.446Z,71
2022-08-19T00:04:32.034Z,71
2022-08-19T00:05:06.361Z,71
2022-08-19T00:05:34.406Z,71
2022-08-19T00:05:52.089Z,70
2022-08-19T00:06:24.946Z,71
2022-08-19T00:06:42.157Z,71
2022-08-19T00:07:12.352Z,71
2022-08-19T00:07:34.349Z,71
2022-08-19T00:08:00.643Z,71
2022-08-19T00:08:32.034Z,71
2022-08-19T00:09:04.963Z,71
2022-08-19T00:09:37.065Z,71
2022-08-19T00:10:10.275Z,71
2022-08-19T00:10:34.435Z,71
2022-08-19T00:10:56.033Z,71
2022-08-19T00:11:30.327Z,71
2022-08-19T00:12:00.529Z,72
2022-08-19T00:12:32.062Z,72
2022-08-19T00:13:04.333Z,72
2022-08-19T00:13:36.231Z,71
2022-08-19T00:14:09.183Z,72
2022-08-19T00:14:35.217Z,71
2022-08-19T00:14:55.886Z,71
2022-08-19T00:15:28.089Z,71
2022-08-19T00:16:01.121Z,72
2022-08-19T00:16:32.066Z,72
2022-08-19T00:17:04.110Z,72
2022-08-19T00:17:35.110Z,71
2022-08-19T00:17:52.043Z,72
2022-08-19T00:18:24.018Z,71
2022-08-19T00:18:41.174Z,71
2022-08-19T00:19:11.989Z,71
2022-08-19T00:19:34.673Z,71
2022-08-19T00:20:00.503Z,72
2022-08-19T00:20:32.000Z,71
2022-08-19T00:21:04.034Z,71
2022-08-19T00:21:34.453Z,71
2022-08-19T00:21:52.968Z,72
2022-08-19T00:22:24.074Z,72
2022-08-19T00:22:41.998Z,72
2022-08-19T00:23:11.983Z,72
2022-08-19T00:23:34.353Z,72
2022-08-19T00:24:00.581Z,72
2022-08-19T00:24:32.058Z,73
2022-08-19T00:25:04.127Z,72
2022-08-19T00:25:35.437Z,72
2022-08-19T00:25:52.883Z,72
2022-08-19T00:26:24.082Z,72
2022-08-19T00:26:42.092Z,72
2022-08-19T00:27:26.170Z,73
2022-08-19T00:27:35.366Z,72
2022-08-19T00:28:00.484Z,72
2022-08-19T00:28:31.962Z,72
2022-08-19T00:29:04.362Z,72
2022-08-19T00:29:34.421Z,72
2022-08-19T00:29:52.496Z,72
2022-08-19T00:30:24.737Z,72
2022-08-19T00:30:42.209Z,72
2022-08-19T00:31:12.005Z,72
2022-08-19T00:31:34.378Z,72
2022-08-19T00:32:00.872Z,72
2022-08-19T00:32:32.067Z,73
2022-08-19T00:33:04.922Z,72
2022-08-19T00:33:34.483Z,72
2022-08-19T00:33:52.916Z,72
2022-08-19T00:34:24.114Z,72
2022-08-19T00:34:41.469Z,72
2022-08-19T00:35:12.025Z,72
2022-08-19T00:35:34.499Z,72
2022-08-19T00:36:00.469Z,72
2022-08-19T00:36:31.980Z,72
2022-08-19T00:37:04.047Z,73
2022-08-19T00:37:34.466Z,73
2022-08-19T00:37:51.900Z,72
2022-08-19T00:38:30.652Z,72
2022-08-19T00:38:43.358Z,72
2022-08-19T00:39:12.117Z,73
2022-08-19T00:39:34.553Z,73
2022-08-19T00:40:00.662Z,73
2022-08-19T00:40:32.585Z,73
2022-08-19T00:41:04.482Z,73
2022-08-19T00:41:34.731Z,73
2022-08-19T00:41:52.073Z,73
2022-08-19T00:42:24.066Z,73
2022-08-19T00:42:41.224Z,73
2022-08-19T00:43:11.987Z,73
2022-08-19T00:43:34.369Z,73
2022-08-19T00:44:01.963Z,73
2022-08-19T00:44:31.985Z,73
2022-08-19T00:45:04.141Z,74
2022-08-19T00:45:36.499Z,74
2022-08-19T00:45:51.889Z,73
2022-08-19T00:46:24.124Z,73
2022-08-19T00:46:42.535Z,73
2022-08-19T00:47:14.369Z,73
2022-08-19T00:47:34.485Z,74
2022-08-19T00:48:00.437Z,74
2022-08-19T00:48:35.415Z,74
2022-08-19T00:49:04.523Z,74
2022-08-19T00:49:35.049Z,74
2022-08-19T00:49:52.152Z,74
2022-08-19T00:50:29.613Z,74
2022-08-19T00:50:51.722Z,74
2022-08-19T00:51:11.996Z,74
2022-08-19T00:51:35.277Z,74
2022-08-19T00:52:00.248Z,74
2022-08-19T00:52:32.918Z,74
2022-08-19T00:53:05.978Z,74
2022-08-19T00:53:34.420Z,74
2022-08-19T00:53:51.848Z,74
2022-08-19T00:54:28.206Z,74
2022-08-19T00:54:42.161Z,74
2022-08-19T00:55:12.033Z,75
2022-08-19T00:55:36.947Z,75
2022-08-19T00:56:00.398Z,75
2022-08-19T00:56:32.788Z,75
2022-08-19T00:57:03.995Z,75
2022-08-19T00:57:34.567Z,75
2022-08-19T00:57:51.886Z,75
2022-08-19T00:58:23.870Z,75
2022-08-19T00:58:42.059Z,75
2022-08-19T00:59:12.432Z,75
2022-08-19T00:59:53.354Z,75
2022-08-19T01:00:16.018Z,75
2022-08-19T01:00:34.432Z,75
2022-08-19T01:01:03.993Z,75
2022-08-19T01:01:34.491Z,75
2022-08-19T01:01:52.765Z,75
2022-08-19T01:02:23.990Z,76
2022-08-19T01:02:42.000Z,76
2022-08-19T01:03:11.974Z,76
2022-08-19T01:03:57.218Z,76
2022-08-19T01:04:16.951Z,76
2022-08-19T01:04:34.392Z,76
2022-08-19T01:05:05.511Z,76
2022-08-19T01:05:36.171Z,76
2022-08-19T01:06:07.848Z,76
2022-08-19T01:06:36.020Z,76
2022-08-19T01:06:55.955Z,76
2022-08-19T01:07:27.992Z,76
2022-08-19T01:08:00.390Z,76
2022-08-19T01:08:32.122Z,76
2022-08-19T01:09:04.065Z,76
2022-08-19T01:09:34.615Z,76
2022-08-19T01:09:51.895Z,76
2022-08-19T01:10:24.518Z,76
2022-08-19T01:10:42.487Z,76
2022-08-19T01:11:12.045Z,76
2022-08-19T01:11:35.924Z,77
2022-08-19T01:12:01.095Z,77
2022-08-19T01:12:31.912Z,76
2022-08-19T01:13:04.223Z,76
2022-08-19T01:13:49.529Z,77
2022-08-19T01:14:07.873Z,77
2022-08-19T01:14:35.555Z,77
2022-08-19T01:14:56.730Z,77
2022-08-19T01:15:28.636Z,78
2022-08-19T01:16:00.291Z,78
2022-08-19T01:16:31.910Z,78
2022-08-19T01:17:04.031Z,78
2022-08-19T01:17:34.435Z,78
2022-08-19T01:17:51.881Z,78
2022-08-19T01:18:23.935Z,78
2022-08-19T01:18:43.311Z,78
2022-08-19T01:19:11.948Z,78
2022-08-19T01:19:43.615Z,78
2022-08-19T01:20:00.368Z,78
2022-08-19T01:20:33.462Z,78
2022-08-19T01:21:03.927Z,78
2022-08-19T01:21:34.609Z,78
2022-08-19T01:21:51.874Z,78
2022-08-19T01:22:30.037Z,78
2022-08-19T01:22:41.233Z,78
2022-08-19T01:23:11.886Z,78
2022-08-19T01:23:36.653Z,78
2022-08-19T01:24:02.234Z,78
2022-08-19T01:24:32.982Z,79
2022-08-19T01:25:04.442Z,78
2022-08-19T01:25:35.165Z,79
2022-08-19T01:26:07.312Z,78
2022-08-19T01:26:23.916Z,78
2022-08-19T01:26:43.101Z,79
2022-08-19T01:27:13.484Z,79
2022-08-19T01:27:35.377Z,79
2022-08-19T01:28:09.228Z,79
2022-08-19T01:28:39.930Z,79
2022-08-19T01:29:05.223Z,79
2022-08-19T01:29:34.477Z,79
2022-08-19T01:29:51.911Z,79
2022-08-19T01:30:24.741Z,79
2022-08-19T01:30:44.223Z,79
2022-08-19T01:31:27.293Z,79
2022-08-19T01:31:35.452Z,79
2022-08-19T01:32:00.260Z,79
2022-08-19T01:32:33.947Z,79
2022-08-19T01:33:04.006Z,79
2022-08-19T01:33:36.826Z,79
2022-08-19T01:34:07.948Z,79
2022-08-19T01:34:35.418Z,79
2022-08-19T01:34:55.875Z,79
2022-08-19T01:35:27.861Z,79
2022-08-19T01:36:00.157Z,79
2022-08-19T01:36:31.884Z,79
2022-08-19T01:37:03.969Z,79
2022-08-19T01:37:34.414Z,78
2022-08-19T01:37:51.877Z,78
2022-08-19T01:38:24.014Z,79
2022-08-19T01:38:44.067Z,79
2022-08-19T01:39:12.040Z,78
2022-08-19T01:39:35.397Z,78
2022-08-19T01:40:00.410Z,78
2022-08-19T01:40:32.011Z,78
2022-08-19T01:41:03.948Z,78
2022-08-19T01:41:34.385Z,78
2022-08-19T01:41:51.837Z,78
2022-08-19T01:42:30.063Z,78
2022-08-19T01:42:41.162Z,78
2022-08-19T01:43:12.896Z,79
2022-08-19T01:43:34.792Z,79
2022-08-19T01:44:12.367Z,79
2022-08-19T01:44:32.369Z,79
2022-08-19T01:45:03.944Z,79
2022-08-19T01:45:35.840Z,79
2022-08-19T01:46:08.661Z,79
2022-08-19T01:46:35.185Z,79
2022-08-19T01:46:55.884Z,79
2022-08-19T01:47:27.877Z,79
2022-08-19T01:48:01.841Z,79
2022-08-19T01:48:31.861Z,79
2022-08-19T01:49:03.895Z,79
2022-08-19T01:49:34.693Z,78
2022-08-19T01:49:53.337Z,78
2022-08-19T01:50:23.880Z,78
2022-08-19T01:50:41.149Z,79
2022-08-19T01:51:13.074Z,79
2022-08-19T01:51:39.956Z,79
2022-08-19T01:52:00.216Z,79
2022-08-19T01:52:32.896Z,79
2022-08-19T01:53:06.243Z,78
2022-08-19T01:53:36.831Z,78
2022-08-19T01:54:07.843Z,79
2022-08-19T01:54:34.377Z,78
2022-08-19T01:54:55.810Z,79
2022-08-19T01:55:27.891Z,79
2022-08-19T01:56:00.845Z,78
2022-08-19T01:56:31.908Z,78
2022-08-19T01:57:03.986Z,78
2022-08-19T01:57:34.373Z,78
2022-08-19T01:57:51.760Z,78
2022-08-19T01:58:23.903Z,78
2022-08-19T01:58:41.074Z,78
2022-08-19T01:59:11.898Z,78
2022-08-19T01:59:35.535Z,78
2022-08-19T02:00:00.320Z,78
2022-08-19T02:00:32.847Z,78
2022-08-19T02:01:04.543Z,78
2022-08-19T02:01:34.383Z,78
2022-08-19T02:02:06.627Z,78
2022-08-19T02:02:24.122Z,78
2022-08-19T02:02:41.264Z,77
2022-08-19T02:03:11.816Z,78
2022-08-19T02:03:34.431Z,78
2022-08-19T02:04:00.190Z,78
2022-08-19T02:04:31.965Z,78
2022-08-19T02:05:04.454Z,78
2022-08-19T02:05:34.416Z,78
2022-08-19T02:05:51.822Z,77
2022-08-19T02:06:26.988Z,77
2022-08-19T02:06:46.299Z,78
2022-08-19T02:07:12.896Z,77
2022-08-19T02:07:34.531Z,77
2022-08-19T02:08:00.243Z,78
2022-08-19T02:08:31.922Z,78
2022-08-19T02:09:04.763Z,78
2022-08-19T02:09:34.427Z,78
2022-08-19T02:09:52.906Z,78
2022-08-19T02:10:23.983Z,78
2022-08-19T02:10:41.228Z,78
2022-08-19T02:11:12.591Z,77
2022-08-19T02:11:34.524Z,77
2022-08-19T02:12:00.280Z,78
2022-08-19T02:12:32.053Z,77
2022-08-19T02:13:06.908Z,76
2022-08-19T02:13:34.423Z,76
2022-08-19T02:13:52.621Z,77
2022-08-19T02:14:24.007Z,77
2022-08-19T02:14:42.004Z,77
2022-08-19T02:15:13.011Z,76
2022-08-19T02:15:34.380Z,76
2022-08-19T02:16:00.205Z,77
2022-08-19T02:16:31.989Z,76
2022-08-19T02:17:04.794Z,77
2022-08-19T02:17:35.494Z,77
2022-08-19T02:18:07.829Z,77
2022-08-19T02:18:34.512Z,76
2022-08-19T02:18:55.972Z,75
2022-08-19T02:19:27.860Z,76
2022-08-19T02:20:00.726Z,76
2022-08-19T02:20:31.884Z,76
2022-08-19T02:21:03.912Z,76
2022-08-19T02:21:34.613Z,77
2022-08-19T02:22:19.273Z,76
2022-08-19T02:22:40.053Z,76
2022-08-19T02:23:13.524Z,76
2022-08-19T02:23:34.874Z,76
2022-08-19T02:24:00.117Z,76
2022-08-19T02:24:31.831Z,75
2022-08-19T02:25:03.881Z,74
2022-08-19T02:25:35.380Z,75
2022-08-19T02:25:52.026Z,76
2022-08-19T02:26:25.363Z,75
2022-08-19T02:26:43.467Z,75
2022-08-19T02:27:11.993Z,74
2022-08-19T02:27:35.570Z,75
2022-08-19T02:28:00.109Z,75
2022-08-19T02:28:34.237Z,75
2022-08-19T02:29:03.895Z,75
2022-08-19T02:29:35.820Z,75
2022-08-19T02:30:07.853Z,74
2022-08-19T02:30:36.583Z,74
2022-08-19T02:30:55.827Z,74
2022-08-19T02:31:28.512Z,75
2022-08-19T02:32:00.132Z,75
2022-08-19T02:32:31.818Z,75
2022-08-19T02:33:04.743Z,74
2022-08-19T02:33:34.964Z,74
2022-08-19T02:33:52.443Z,74
2022-08-19T02:34:23.878Z,75
2022-08-19T02:34:41.338Z,75
2022-08-19T02:35:12.489Z,75
2022-08-19T02:35:34.414Z,75
2022-08-19T02:36:00.024Z,75
2022-08-19T02:36:32.557Z,76
2022-08-19T02:37:04.058Z,76
2022-08-19T02:37:35.082Z,76
2022-08-19T02:37:51.932Z,76
2022-08-19T02:38:23.904Z,75
2022-08-19T02:38:41.264Z,75
2022-08-19T02:39:12.841Z,76
2022-08-19T02:39:34.709Z,76
2022-08-19T02:40:00.020Z,76
2022-08-19T02:40:31.961Z,76
2022-08-19T02:41:03.902Z,76
2022-08-19T02:41:35.233Z,76
2022-08-19T02:41:51.805Z,76
2022-08-19T02:42:24.071Z,76
2022-08-19T02:42:41.214Z,77
2022-08-19T02:43:14.201Z,76
2022-08-19T02:43:34.696Z,76
2022-08-19T02:44:28.769Z,76
2022-08-19T02:44:35.514Z,76
2022-08-19T02:45:03.950Z,76
2022-08-19T02:45:34.421Z,76
2022-08-19T02:45:51.850Z,76
2022-08-19T02:46:24.652Z,76
2022-08-19T02:46:41.801Z,76
2022-08-19T02:47:11.818Z,76
2022-08-19T02:47:34.450Z,76
2022-08-19T02:48:00.029Z,77
2022-08-19T02:48:31.804Z,77
2022-08-19T02:49:03.865Z,77
2022-08-19T02:49:35.107Z,77
2022-08-19T02:49:51.807Z,77
2022-08-19T02:50:23.870Z,77
2022-08-19T02:50:51.769Z,77
2022-08-19T02:51:12.003Z,77
2022-08-19T02:51:34.405Z,77
2022-08-19T02:52:00.278Z,77
2022-08-19T02:52:31.780Z,76
2022-08-19T02:53:03.940Z,77
2022-08-19T02:53:34.646Z,77
2022-08-19T02:53:52.572Z,77
2022-08-19T02:54:23.867Z,77
2022-08-19T02:54:41.909Z,77
2022-08-19T02:55:11.940Z,77
2022-08-19T02:55:45.954Z,77
2022-08-19T02:56:00.153Z,77
2022-08-19T02:56:31.787Z,77
2022-08-19T02:57:03.822Z,77
2022-08-19T02:57:34.513Z,77
2022-08-19T02:57:51.908Z,78
2022-08-19T02:58:23.946Z,77
2022-08-19T02:58:41.905Z,77
2022-08-19T02:59:11.941Z,77
2022-08-19T02:59:34.378Z,77
2022-08-19T03:00:01.250Z,77
2022-08-19T03:00:31.834Z,77
2022-08-19T03:01:03.892Z,77
2022-08-19T03:01:34.554Z,77
2022-08-19T03:01:51.796Z,77
2022-08-19T03:02:23.844Z,77
2022-08-19T03:02:41.268Z,77
2022-08-19T03:03:11.756Z,77
2022-08-19T03:03:34.412Z,77
2022-08-19T03:03:59.962Z,77
2022-08-19T03:04:31.904Z,77
2022-08-19T03:05:04.553Z,77
2022-08-19T03:05:47.937Z,76
2022-08-19T03:06:07.859Z,76
2022-08-19T03:06:34.526Z,77
2022-08-19T03:06:58.499Z,77
2022-08-19T03:07:27.888Z,77
2022-08-19T03:07:59.914Z,77
2022-08-19T03:08:31.783Z,77
2022-08-19T03:09:03.967Z,77
2022-08-19T03:09:34.399Z,78
2022-08-19T03:09:51.766Z,78
2022-08-19T03:10:23.907Z,78
2022-08-19T03:10:41.153Z,78
2022-08-19T03:11:11.885Z,78
2022-08-19T03:11:34.398Z,78
2022-08-19T03:11:59.960Z,78
2022-08-19T03:12:32.108Z,78
2022-08-19T03:13:04.734Z,78
2022-08-19T03:13:34.426Z,78
2022-08-19T03:13:52.823Z,77
2022-08-19T03:14:24.552Z,78
2022-08-19T03:14:41.854Z,78
2022-08-19T03:15:12.605Z,78
2022-08-19T03:15:34.394Z,78
2022-08-19T03:15:59.849Z,78
2022-08-19T03:16:33.410Z,78
2022-08-19T03:17:03.899Z,78
2022-08-19T03:17:34.441Z,79
2022-08-19T03:17:52.618Z,78
2022-08-19T03:18:23.842Z,78
2022-08-19T03:18:41.192Z,78
2022-08-19T03:19:11.773Z,78
2022-08-19T03:19:34.469Z,78
2022-08-19T03:19:59.879Z,79
2022-08-19T03:20:31.711Z,79
2022-08-19T03:21:04.754Z,79
2022-08-19T03:21:34.398Z,79
2022-08-19T03:21:51.769Z,80
2022-08-19T03:22:23.807Z,79
2022-08-19T03:22:41.133Z,79
2022-08-19T03:23:11.826Z,79
2022-08-19T03:23:34.381Z,79
2022-08-19T03:24:00.031Z,79
2022-08-19T03:24:31.727Z,79
2022-08-19T03:25:03.840Z,79
2022-08-19T03:25:36.435Z,79
2022-08-19T03:26:16.536Z,80
2022-08-19T03:26:35.762Z,79
2022-08-19T03:26:55.702Z,79
2022-08-19T03:27:32.528Z,79
2022-08-19T03:27:59.881Z,79
2022-08-19T03:28:32.843Z,79
2022-08-19T03:29:04.933Z,79
2022-08-19T03:29:34.386Z,79
2022-08-19T03:29:51.767Z,79
2022-08-19T03:30:25.418Z,79
2022-08-19T03:30:43.501Z,79
2022-08-19T03:31:44.223Z,79
2022-08-19T03:32:00.012Z,79
2022-08-19T03:32:33.071Z,79
2022-08-19T03:33:03.800Z,80
2022-08-19T03:33:34.560Z,80
2022-08-19T03:33:51.742Z,80
2022-08-19T03:34:23.801Z,80
2022-08-19T03:34:42.122Z,80
2022-08-19T03:35:11.794Z,80
2022-08-19T03:35:34.386Z,80
2022-08-19T03:35:59.847Z,81
2022-08-19T03:36:31.965Z,81
2022-08-19T03:37:03.817Z,81
2022-08-19T03:37:36.235Z,81
2022-08-19T03:38:07.728Z,81
2022-08-19T03:38:35.313Z,81
2022-08-19T03:38:56.414Z,81
2022-08-19T03:39:27.749Z,81
2022-08-19T03:40:00.002Z,81
2022-08-19T03:40:32.483Z,81
2022-08-19T03:41:03.836Z,81
2022-08-19T03:41:45.572Z,81
2022-08-19T03:42:32.262Z,81
2022-08-19T03:42:56.801Z,81
2022-08-19T03:43:27.713Z,81
2022-08-19T03:44:01.139Z,81
2022-08-19T03:44:31.731Z,81
2022-08-19T03:45:03.922Z,81
2022-08-19T03:45:34.426Z,81
2022-08-19T03:45:52.530Z,81
2022-08-19T03:46:23.834Z,81
2022-08-19T03:46:44.537Z,81
2022-08-19T03:47:11.817Z,81
2022-08-19T03:47:34.379Z,81
2022-08-19T03:47:59.834Z,81
2022-08-19T03:48:32.796Z,80
2022-08-19T03:49:03.843Z,80
2022-08-19T03:49:36.104Z,80
2022-08-19T03:50:12.749Z,80
2022-08-19T03:50:34.442Z,79
2022-08-19T03:50:55.707Z,79
2022-08-19T03:51:31.007Z,79
2022-08-19T03:51:59.746Z,80
2022-08-19T03:52:31.792Z,80
2022-08-19T03:53:03.795Z,80
2022-08-19T03:53:35.131Z,80
2022-08-19T03:53:51.673Z,80
2022-08-19T03:54:23.788Z,81
2022-08-19T03:54:41.715Z,81
2022-08-19T03:55:11.774Z,81
2022-08-19T03:55:34.917Z,81
2022-08-19T03:55:59.841Z,81
2022-08-19T03:56:31.724Z,80
2022-08-19T03:57:03.760Z,81
2022-08-19T03:57:36.285Z,81
2022-08-19T03:58:07.780Z,80
2022-08-19T03:58:35.397Z,80
2022-08-19T03:58:55.726Z,80
2022-08-19T03:59:27.817Z,81
2022-08-19T04:00:12.978Z,81
2022-08-19T04:00:31.790Z,81
2022-08-19T04:01:03.883Z,81
2022-08-19T04:01:34.978Z,80
2022-08-19T04:01:51.809Z,80
2022-08-19T04:02:23.879Z,80
2022-08-19T04:02:41.193Z,80
2022-08-19T04:03:11.740Z,80
2022-08-19T04:03:34.408Z,81
2022-08-19T04:03:59.856Z,81
2022-08-19T04:04:31.893Z,81
2022-08-19T04:05:19.378Z,81
2022-08-19T04:05:51.712Z,81
2022-08-19T04:06:24.684Z,80
2022-08-19T04:06:41.779Z,80
2022-08-19T04:07:11.782Z,80
2022-08-19T04:07:35.680Z,80
2022-08-19T04:07:59.869Z,79
2022-08-19T04:08:31.734Z,79
2022-08-19T04:09:03.864Z,79
2022-08-19T04:09:34.922Z,79
2022-08-19T04:10:10.684Z,80
2022-08-19T04:10:34.397Z,80
2022-08-19T04:10:55.669Z,80
2022-08-19T04:11:43.922Z,80
2022-08-19T04:11:59.829Z,80
2022-08-19T04:12:31.716Z,80
2022-08-19T04:13:04.089Z,80
2022-08-19T04:13:34.424Z,80
2022-08-19T04:13:51.704Z,80
2022-08-19T04:14:24.590Z,80
2022-08-19T04:14:42.033Z,79
2022-08-19T04:15:12.421Z,80
2022-08-19T04:15:35.129Z,80
2022-08-19T04:15:59.714Z,80
2022-08-19T04:16:35.125Z,80
2022-08-19T04:17:03.793Z,80
2022-08-19T04:17:36.521Z,79
2022-08-19T04:18:07.694Z,79
2022-08-19T04:18:36.610Z,79
2022-08-19T04:18:55.761Z,79
2022-08-19T04:19:28.709Z,80
2022-08-19T04:19:59.733Z,80
2022-08-19T04:20:31.726Z,80
2022-08-19T04:21:03.819Z,79
2022-08-19T04:21:36.619Z,79
2022-08-19T04:22:07.795Z,79
2022-08-19T04:22:36.295Z,79
2022-08-19T04:22:55.740Z,79
2022-08-19T04:23:27.777Z,79
2022-08-19T04:23:59.727Z,79
2022-08-19T04:24:32.886Z,79
2022-08-19T04:25:03.880Z,79
2022-08-19T04:25:34.403Z,79
2022-08-19T04:25:52.031Z,79
2022-08-19T04:26:23.777Z,79
2022-08-19T04:26:41.375Z,79
2022-08-19T04:27:12.212Z,79
2022-08-19T04:27:35.643Z,79
2022-08-19T04:27:59.734Z,78
2022-08-19T04:28:31.951Z,78
2022-08-19T04:29:03.865Z,79
2022-08-19T04:29:34.471Z,79
2022-08-19T04:29:51.905Z,78
2022-08-19T04:30:24.443Z,78
2022-08-19T04:30:41.657Z,78
2022-08-19T04:31:11.902Z,79
2022-08-19T04:31:34.563Z,79
2022-08-19T04:31:59.821Z,79
2022-08-19T04:32:31.681Z,78
2022-08-19T04:33:04.825Z,78
2022-08-19T04:33:34.480Z,78
2022-08-19T04:33:51.897Z,79
2022-08-19T04:34:24.090Z,79
2022-08-19T04:35:01.460Z,79
2022-08-19T04:35:28.560Z,80
2022-08-19T04:35:59.969Z,80
2022-08-19T04:36:31.897Z,80
2022-08-19T04:37:03.945Z,79
2022-08-19T04:37:35.519Z,78
2022-08-19T04:37:51.955Z,79
2022-08-19T04:38:23.905Z,79
2022-08-19T04:38:41.823Z,79
2022-08-19T04:39:11.860Z,79
2022-08-19T04:39:34.573Z,78
2022-08-19T04:40:02.581Z,79
2022-08-19T04:40:32.621Z,78
2022-08-19T04:41:03.960Z,78
2022-08-19T04:41:34.586Z,78
2022-08-19T04:41:52.208Z,78
2022-08-19T04:42:30.900Z,78
2022-08-19T04:42:41.403Z,78
2022-08-19T04:43:11.930Z,78
2022-08-19T04:43:34.569Z,78
2022-08-19T04:44:04.226Z,79
2022-08-19T04:44:33.286Z,79
2022-08-19T04:45:05.267Z,79
2022-08-19T04:45:39.672Z,79
2022-08-19T04:45:51.813Z,78
2022-08-19T04:46:40.279Z,79
2022-08-19T04:46:56.549Z,79
2022-08-19T04:47:48.282Z,79
2022-08-19T04:48:27.356Z,79
2022-08-19T04:48:35.311Z,79
2022-08-19T04:49:13.232Z,79
2022-08-19T04:49:34.743Z,78
2022-08-19T04:49:52.140Z,78
2022-08-19T04:50:24.200Z,78
2022-08-19T04:50:41.788Z,78
2022-08-19T04:51:11.888Z,79
2022-08-19T04:51:36.237Z,79
2022-08-19T04:51:59.996Z,78
2022-08-19T04:52:33.025Z,77
2022-08-19T04:53:04.052Z,77
2022-08-19T04:53:37.825Z,78
2022-08-19T04:53:51.882Z,77
2022-08-19T04:54:36.943Z,77
2022-08-19T04:54:55.789Z,77
2022-08-19T04:55:27.954Z,78
2022-08-19T04:55:59.849Z,77
2022-08-19T04:56:31.935Z,78
2022-08-19T04:57:04.683Z,78
2022-08-19T04:57:34.576Z,78
2022-08-19T04:57:51.920Z,78
2022-08-19T04:58:23.962Z,78
2022-08-19T04:58:41.311Z,78
2022-08-19T04:59:11.969Z,78
2022-08-19T04:59:34.677Z,78
2022-08-19T04:59:59.871Z,78
2022-08-19T05:00:31.900Z,78
2022-08-19T05:01:04.885Z,78
2022-08-19T05:01:35.648Z,78
2022-08-19T05:02:07.961Z,78
2022-08-19T05:02:36.023Z,79
2022-08-19T05:02:55.881Z,78
2022-08-19T05:03:30.558Z,79
2022-08-19T05:03:59.840Z,79
2022-08-19T05:04:31.938Z,79
2022-08-19T05:05:04.318Z,79
2022-08-19T05:05:44.502Z,79
2022-08-19T05:05:52.549Z,79
2022-08-19T05:06:23.945Z,80
2022-08-19T05:06:42.086Z,80
2022-08-19T05:07:11.969Z,80
2022-08-19T05:07:35.359Z,80
2022-08-19T05:07:59.893Z,80
2022-08-19T05:08:31.897Z,79
2022-08-19T05:09:04.075Z,79
2022-08-19T05:09:57.735Z,79
2022-08-19T05:10:07.894Z,80
2022-08-19T05:10:35.373Z,79
2022-08-19T05:10:57.417Z,79
2022-08-19T05:11:29.055Z,80
2022-08-19T05:12:01.290Z,80
2022-08-19T05:12:32.351Z,80
2022-08-19T05:13:04.357Z,80
2022-08-19T05:13:34.571Z,80
2022-08-19T05:13:51.833Z,80
2022-08-19T05:14:24.053Z,80
2022-08-19T05:14:41.803Z,80
2022-08-19T05:15:11.975Z,80
2022-08-19T05:15:35.172Z,80
2022-08-19T05:16:01.553Z,80
2022-08-19T05:16:32.668Z,80
2022-08-19T05:17:26.227Z,80
2022-08-19T05:17:38.747Z,80
2022-08-19T05:18:07.870Z,81
2022-08-19T05:18:36.417Z,81
2022-08-19T05:18:55.833Z,81
2022-08-19T05:19:27.918Z,81
2022-08-19T05:20:02.450Z,81
2022-08-19T05:20:31.801Z,81
2022-08-19T05:21:05.390Z,81
2022-08-19T05:21:35.583Z,81
2022-08-19T05:22:07.899Z,81
2022-08-19T05:22:34.819Z,81
2022-08-19T05:22:56.705Z,81
2022-08-19T05:23:27.952Z,81
2022-08-19T05:23:59.752Z,81
2022-08-19T05:24:33.808Z,81
2022-08-19T05:25:12.792Z,82
2022-08-19T05:25:34.661Z,82
2022-08-19T05:25:51.813Z,82
2022-08-19T05:26:23.907Z,82
2022-08-19T05:26:41.702Z,82
2022-08-19T05:27:12.462Z,82
2022-08-19T05:27:34.567Z,82
2022-08-19T05:28:01.128Z,82
2022-08-19T05:28:32.013Z,82
2022-08-19T05:29:04.028Z,82
2022-08-19T05:29:36.292Z,82
2022-08-19T05:29:51.863Z,82
2022-08-19T05:30:33.649Z,82
2022-08-19T05:30:56.948Z,82
2022-08-19T05:31:27.909Z,82
2022-08-19T05:31:59.857Z,82
2022-08-19T05:32:31.950Z,82
2022-08-19T05:33:04.656Z,82
2022-08-19T05:33:35.569Z,82
2022-08-19T05:34:20.288Z,81
2022-08-19T05:34:36.309Z,81
2022-08-19T05:34:57.884Z,81
2022-08-19T05:35:28.171Z,81
2022-08-19T05:36:00.020Z,81
2022-08-19T05:36:31.948Z,80
2022-08-19T05:37:03.966Z,80
2022-08-19T05:37:35.126Z,80
2022-08-19T05:37:52.609Z,80
2022-08-19T05:38:24.955Z,80
2022-08-19T05:38:42.104Z,80
2022-08-19T05:39:12.373Z,80
2022-08-19T05:39:34.574Z,80
2022-08-19T05:39:59.928Z,80
2022-08-19T05:40:31.978Z,80
2022-08-19T05:41:04.045Z,80
2022-08-19T05:41:34.778Z,80
2022-08-19T05:42:08.623Z,79
2022-08-19T05:42:34.976Z,79
2022-08-19T05:42:55.868Z,79
2022-08-19T05:43:27.950Z,79
2022-08-19T05:43:59.804Z,79
2022-08-19T05:44:33.155Z,79
2022-08-19T05:45:04.007Z,79
2022-08-19T05:45:34.838Z,79
2022-08-19T05:46:07.832Z,79
2022-08-19T05:46:34.616Z,80
2022-08-19T05:46:55.762Z,79
2022-08-19T05:47:27.784Z,79
2022-08-19T05:47:59.774Z,79
2022-08-19T05:48:31.767Z,79
2022-08-19T05:49:03.953Z,79
2022-08-19T05:49:35.584Z,79
2022-08-19T05:50:08.793Z,80
2022-08-19T05:50:34.549Z,80
2022-08-19T05:50:55.733Z,79
2022-08-19T05:51:29.706Z,80
2022-08-19T05:51:59.694Z,80
2022-08-19T05:52:31.862Z,80
2022-08-19T05:53:03.912Z,80
2022-08-19T05:53:34.781Z,80
2022-08-19T05:53:51.829Z,79
2022-08-19T05:54:23.847Z,79
2022-08-19T05:54:42.269Z,79
2022-08-19T05:55:12.067Z,80
2022-08-19T05:55:34.600Z,80
2022-08-19T05:55:59.750Z,80
2022-08-19T05:56:31.909Z,80
2022-08-19T05:57:03.957Z,80
2022-08-19T05:57:34.552Z,80
2022-08-19T05:57:52.632Z,79
2022-08-19T05:58:23.888Z,80
2022-08-19T05:58:42.715Z,80
2022-08-19T05:59:12.822Z,80
2022-08-19T05:59:34.540Z,80
2022-08-19T06:00:01.217Z,80
2022-08-19T06:00:31.902Z,80
2022-08-19T06:01:03.970Z,80
2022-08-19T06:01:34.574Z,80
2022-08-19T06:01:52.203Z,79
2022-08-19T06:02:24.073Z,79
2022-08-19T06:02:41.583Z,79
2022-08-19T06:03:13.472Z,80
2022-08-19T06:03:34.612Z,79
2022-08-19T06:03:59.801Z,79
2022-08-19T06:04:31.797Z,79
2022-08-19T06:05:04.799Z,79
2022-08-19T06:05:42.343Z,79
2022-08-19T06:06:07.892Z,78
2022-08-19T06:06:34.569Z,78
2022-08-19T06:06:56.600Z,78
2022-08-19T06:07:27.939Z,78
2022-08-19T06:08:00.992Z,78
2022-08-19T06:08:34.594Z,79
2022-08-19T06:09:04.032Z,79
2022-08-19T06:09:36.519Z,79
2022-08-19T06:10:09.594Z,79
2022-08-19T06:10:37.968Z,79
2022-08-19T06:10:55.928Z,79
2022-08-19T06:11:27.789Z,79
2022-08-19T06:11:59.869Z,78
2022-08-19T06:12:32.926Z,78
2022-08-19T06:13:04.254Z,78
2022-08-19T06:13:35.287Z,78
2022-08-19T06:13:59.826Z,77
2022-08-19T06:14:27.857Z,77
2022-08-19T06:14:42.041Z,77
2022-08-19T06:15:13.680Z,77
2022-08-19T06:15:34.628Z,77
2022-08-19T06:15:59.794Z,77
2022-08-19T06:16:32.202Z,77
2022-08-19T06:17:07.055Z,77
2022-08-19T06:17:34.655Z,77
2022-08-19T06:17:51.856Z,77
2022-08-19T06:18:23.877Z,77
2022-08-19T06:18:43.053Z,77
2022-08-19T06:19:12.051Z,77
2022-08-19T06:19:34.582Z,77
2022-08-19T06:20:01.074Z,77
2022-08-19T06:20:54.438Z,77
2022-08-19T06:21:03.992Z,77
2022-08-19T06:21:34.712Z,77
2022-08-19T06:21:51.889Z,77
2022-08-19T06:22:23.653Z,77
2022-08-19T06:22:41.355Z,77
2022-08-19T06:23:12.072Z,77
2022-08-19T06:23:35.611Z,77
2022-08-19T06:24:01.133Z,77
2022-08-19T06:24:31.972Z,77
2022-08-19T06:25:04.733Z,76
2022-08-19T06:25:34.812Z,76
2022-08-19T06:25:51.741Z,76
2022-08-19T06:26:23.846Z,76
2022-08-19T06:26:41.415Z,76
2022-08-19T06:27:12.598Z,76
2022-08-19T06:27:34.638Z,76
2022-08-19T06:28:14.491Z,76
2022-08-19T06:28:32.818Z,76
2022-08-19T06:29:04.660Z,76
2022-08-19T06:29:34.608Z,76
2022-08-19T06:29:53.232Z,76
2022-08-19T06:30:24.597Z,76
2022-08-19T06:30:42.108Z,76
2022-08-19T06:31:13.065Z,76
2022-08-19T06:31:34.631Z,76
2022-08-19T06:31:59.718Z,76
2022-08-19T06:32:31.911Z,76
2022-08-19T06:33:03.897Z,76
2022-08-19T06:33:34.618Z,76
2022-08-19T06:33:52.731Z,76
2022-08-19T06:34:25.725Z,76
2022-08-19T06:34:55.787Z,76
2022-08-19T06:35:30.482Z,76
2022-08-19T06:36:01.064Z,76
2022-08-19T06:36:31.985Z,76